x

Pi-745 Tabs K (42045) Weather Station

9:00am - Mon 23rd Oct 2017 All times are CDT. -5 hours from GMT.

  • Wind
    11mph, 13mph gusts
  • Sea Temp 82°f
  • Sea Pressure 1019.9mb
  • Pi-745 Tabs K
  • Pi-745 Tabs K

More Historic Weather Station data

Upgrade to MSW Pro to gain access to the past 30 days of data for over 8000 Wavebouys and Weather Stations around the globe.

Join

Comparision Forecast

View Surf forecast
   
Mon 10/23 9:00am 11 13 mph 1019.9mb 82f
8:00am 13 16 mph 1019.5mb 82f
6:00am 13 18 mph 1018.6mb 82f
5:00am 16 20 mph 1018.4mb 82f
4:00am 13 18 mph 1018.5mb 82f
3:00am 16 18 mph 1019mb 82f
2:00am 16 20 mph 1018.9mb 82f
12:00am 18 20 mph 1019.2mb 82f
Sun 10/22 5:00pm 25 27 mph 1015.9mb 82f
4:00pm 27 31 mph 1015.7mb 82f
3:00pm 13 18 mph 1015.4mb 82f
1:00pm 7 7 mph 1016.3mb 82f
11:00am  -  2 mph 1016.5mb 82f
10:00am 4 4 mph 1016.4mb 82f
9:00am 2 2 mph 1015.4mb 82f
8:00am 4 7 mph 1014.6mb 82f
6:00am 9 11 mph 1013.6mb 82f
5:00am 11 13 mph 1012.9mb 82f
4:00am 13 16 mph 1012.8mb 82f
3:00am 13 16 mph 1012.6mb 82f
2:00am 13 18 mph 1013mb 82f
1:00am 16 18 mph 1012.6mb 82f
12:00am 16 20 mph 1012.9mb 82f
Sat 10/21 11:00pm 16 18 mph 1012.8mb 82f
6:00pm 11 16 mph 1010.7mb 82f
5:00pm 11 13 mph 1010.8mb 82f
4:00pm 9 11 mph 1010.6mb 82f
3:00pm 9 11 mph 1010.8mb 82f
2:00pm 7 9 mph 1011.5mb 82f
1:00pm 7 9 mph 1012.4mb 82f
12:00pm 7 9 mph 1013.2mb 82f
11:00am 9 11 mph 1013.1mb 82f
8:00am 13 16 mph 1012mb 82f
7:00am 13 16 mph 1011.5mb 82f
6:00am 16 18 mph 1011.2mb 82f
3:00am 13 16 mph 1011.7mb 82f
2:00am 13 16 mph 1012.3mb 82f
1:00am 13 16 mph 1012.6mb 82f
12:00am 11 13 mph 1012.7mb 82f
Fri 10/20 11:00pm 11 13 mph 1012.8mb 82f
6:00pm 7 9 mph 1012.1mb 81f
5:00pm 4 7 mph 1012.5mb 82f
4:00pm 7 7 mph 1012.5mb 83f
3:00pm 4 7 mph 1012.9mb 82f
2:00pm 4 4 mph 1013.8mb 82f
1:00pm 2 2 mph 1014.9mb 81f
12:00pm 4 4 mph 1015.7mb 81f
8:00am 7 7 mph 1015.3mb 81f
7:00am 7 7 mph 1015.1mb 82f
3:00am 9 11 mph 1015.1mb 82f
2:00am 7 9 mph 1015.8mb 81f
1:00am 7 9 mph 1016.1mb 82f
Thu 10/19 11:00pm 7 9 mph 1016.5mb 82f
5:00pm 4 7 mph 1015.2mb 82f